Time;durP1;ratioP1;P1;durP2;ratioP2;P2;SDS_P1;SDS_P2;PMS_P1;PMS_P2;Temp;Humidity;BMP_temperature;BMP_pressure;BME280_temperature;BME280_humidity;BME280_pressure;Samples;Min_cycle;Max_cycle;Signal;HPM_P1;HPM_P2
2023/06/22 00:01:06;;;;;;;;;;;18.00;99.90;;;;;;5034154;28;19986;-65
2023/06/22 00:03:31;;;;;;;;;;;18.00;99.90;;;;;;5033482;28;19963;-85
2023/06/22 00:05:57;;;;;;;;;;;17.90;99.90;;;;;;5033805;28;19917;-66
2023/06/22 00:08:23;;;;;;;;;;;17.80;99.90;;;;;;5040691;28;19908;-65
2023/06/22 00:10:48;;;;;;;;;;;17.80;99.90;;;;;;5035363;28;19920;-65
2023/06/22 00:13:14;;;;;;;;;;;17.70;99.90;;;;;;5034429;28;19923;-66
2023/06/22 00:15:40;;;;;;;;;;;17.70;99.90;;;;;;5037423;28;19908;-66
2023/06/22 00:18:06;;;;;;;;;;;17.70;99.90;;;;;;5038475;28;19943;-65
2023/06/22 00:20:32;;;;;;;;;;;17.70;99.90;;;;;;5038484;28;19913;-66
2023/06/22 00:22:58;;;;;;;;;;;17.60;99.90;;;;;;5037485;28;20003;-66
2023/06/22 00:25:24;;;;;;;;;;;17.70;99.90;;;;;;5038421;28;20219;-65
2023/06/22 00:27:50;;;;;;;;;;;17.70;99.90;;;;;;5038524;28;19909;-66
2023/06/22 00:30:16;;;;;;;;;;;17.70;99.90;;;;;;5038506;28;20216;-82
2023/06/22 00:32:41;;;;;;;;;;;17.60;99.90;;;;;;5036463;28;19954;-66
2023/06/22 00:35:07;;;;;;;;;;;17.50;99.90;;;;;;5037495;28;19913;-65
2023/06/22 00:37:33;;;;;;;;;;;17.60;99.90;;;;;;5037680;28;19913;-66
2023/06/22 00:39:58;;;;;;;;;;;17.60;99.90;;;;;;5038331;28;19909;-67
2023/06/22 00:42:24;;;;;;;;;;;17.60;99.90;;;;;;5038017;28;19947;-65
2023/06/22 00:44:50;;;;;;;;;;;17.60;99.90;;;;;;5037895;28;20325;-66
2023/06/22 00:47:17;;;;;;;;;;;17.70;99.90;;;;;;5039070;28;20204;-65
2023/06/22 00:49:42;;;;;;;;;;;17.70;99.90;;;;;;5037185;28;19915;-65
2023/06/22 00:52:09;;;;;;;;;;;17.70;99.90;;;;;;5037803;28;19999;-65
2023/06/22 00:54:35;;;;;;;;;;;17.70;99.90;;;;;;5031759;28;19909;-83
2023/06/22 00:57:01;;;;;;;;;;;17.70;99.90;;;;;;5037483;28;19913;-66
2023/06/22 00:59:27;;;;;;;;;;;17.70;99.90;;;;;;5036311;28;20007;-82
2023/06/22 01:01:53;;;;;;;;;;;17.70;99.90;;;;;;5032701;28;20004;-65
2023/06/22 01:04:18;;;;;;;;;;;17.70;99.90;;;;;;5037228;28;20258;-65
2023/06/22 01:06:58;;;;;;;;;;;17.70;99.90;;;;;;5033967;28;19905;-65
2023/06/22 01:09:28;;;;;;;;;;;17.50;99.90;;;;;;5026068;28;20004;-66
2023/06/22 01:11:57;;;;;;;;;;;17.40;99.90;;;;;;5025242;28;19905;-67
2023/06/22 01:14:41;;;;;;;;;;;17.30;99.90;;;;;;5034527;28;19970;-65
2023/06/22 01:17:08;;;;;;;;;;;17.20;99.90;;;;;;5037394;28;20230;-66
2023/06/22 01:19:34;;;;;;;;;;;17.10;99.90;;;;;;5037814;28;19911;-83
2023/06/22 01:22:00;;;;;;;;;;;17.00;99.90;;;;;;5038031;28;19905;-65
2023/06/22 01:24:36;;;;;;;;;;;16.90;99.90;;;;;;5036353;28;19913;-66
2023/06/22 01:27:13;;;;;;;;;;;16.80;99.90;;;;;;5037610;28;19971;-66
2023/06/22 01:29:40;;;;;;;;;;;16.80;99.90;;;;;;5037601;28;19940;-65
2023/06/22 01:32:06;;;;;;;;;;;16.80;99.90;;;;;;5037733;28;20357;-65
2023/06/22 01:34:33;;;;;;;;;;;16.80;99.90;;;;;;5042379;28;19905;-82
2023/06/22 01:36:59;;;;;;;;;;;16.80;99.90;;;;;;5036308;28;20004;-65
2023/06/22 01:39:25;;;;;;;;;;;16.80;99.90;;;;;;5038675;28;19905;-65
2023/06/22 01:41:51;;;;;;;;;;;16.90;99.90;;;;;;5036655;28;19920;-66
2023/06/22 01:44:17;;;;;;;;;;;16.90;99.90;;;;;;5037349;28;19905;-66
2023/06/22 01:46:43;;;;;;;;;;;17.00;99.90;;;;;;5037568;28;19915;-66
2023/06/22 01:49:08;;;;;;;;;;;17.10;99.90;;;;;;5037049;28;19912;-65
2023/06/22 01:51:34;;;;;;;;;;;17.20;99.90;;;;;;5034763;28;19909;-66
2023/06/22 01:54:01;;;;;;;;;;;17.20;99.90;;;;;;5035899;28;19960;-65
2023/06/22 01:56:26;;;;;;;;;;;17.10;99.90;;;;;;5035312;28;19948;-66
2023/06/22 01:59:11;;;;;;;;;;;17.00;99.90;;;;;;5037243;28;19960;-82
2023/06/22 02:01:41;;;;;;;;;;;16.90;99.90;;;;;;5030903;28;19928;-66
2023/06/22 02:04:11;;;;;;;;;;;16.70;99.90;;;;;;5036508;28;19952;-65
2023/06/22 02:06:37;;;;;;;;;;;16.60;99.90;;;;;;5036437;28;19913;-65
2023/06/22 02:09:07;;;;;;;;;;;16.50;99.90;;;;;;5036309;28;19924;-65
2023/06/22 02:11:33;;;;;;;;;;;16.40;99.90;;;;;;5036426;28;20004;-65
2023/06/22 02:13:59;;;;;;;;;;;16.30;99.90;;;;;;5034262;28;20016;-67
2023/06/22 02:16:29;;;;;;;;;;;16.30;99.90;;;;;;5036546;28;19909;-65
2023/06/22 02:19:02;;;;;;;;;;;16.20;99.90;;;;;;5018633;28;19919;-65
2023/06/22 02:21:28;;;;;;;;;;;16.20;99.90;;;;;;5035055;28;19913;-66
2023/06/22 02:23:54;;;;;;;;;;;16.10;99.90;;;;;;5037745;28;20323;-65
2023/06/22 02:26:20;;;;;;;;;;;16.10;99.90;;;;;;5036268;28;19965;-66
2023/06/22 02:28:45;;;;;;;;;;;16.10;99.90;;;;;;5035951;28;19913;-81
2023/06/22 02:31:11;;;;;;;;;;;16.10;99.90;;;;;;5035088;28;19960;-65
2023/06/22 02:33:37;;;;;;;;;;;16.00;99.90;;;;;;5035047;28;19909;-65
2023/06/22 02:36:05;;;;;;;;;;;16.00;99.90;;;;;;5036246;28;20279;-66
2023/06/22 02:38:34;;;;;;;;;;;15.90;99.90;;;;;;5036200;28;19923;-66
2023/06/22 02:41:00;;;;;;;;;;;15.90;99.90;;;;;;5034772;28;19909;-66
2023/06/22 02:43:25;;;;;;;;;;;15.80;99.90;;;;;;5035254;28;19920;-87
2023/06/22 02:45:51;;;;;;;;;;;15.80;99.90;;;;;;5036081;28;20327;-66
2023/06/22 02:48:17;;;;;;;;;;;15.80;99.90;;;;;;5036189;28;19905;-66
2023/06/22 02:50:42;;;;;;;;;;;16.00;99.90;;;;;;5035805;28;19909;-66
2023/06/22 02:53:08;;;;;;;;;;;16.10;99.90;;;;;;5036033;28;19913;-73
2023/06/22 02:55:33;;;;;;;;;;;16.20;99.90;;;;;;5036369;28;19916;-66
2023/06/22 02:57:59;;;;;;;;;;;16.20;99.90;;;;;;5036055;28;19913;-66
2023/06/22 03:00:30;;;;;;;;;;;16.30;99.90;;;;;;5035727;28;19921;-66
2023/06/22 03:02:55;;;;;;;;;;;16.30;99.90;;;;;;5035173;28;19913;-66
2023/06/22 03:05:21;;;;;;;;;;;16.20;99.90;;;;;;5035723;28;19918;-66
2023/06/22 03:07:47;;;;;;;;;;;16.10;99.90;;;;;;5036158;28;19908;-66
2023/06/22 03:10:13;;;;;;;;;;;16.00;99.90;;;;;;5035597;28;19916;-66
2023/06/22 03:12:39;;;;;;;;;;;15.90;99.90;;;;;;5030390;28;19909;-66
2023/06/22 03:15:06;;;;;;;;;;;16.00;99.90;;;;;;5036193;28;19905;-65
2023/06/22 03:17:31;;;;;;;;;;;16.00;99.90;;;;;;5035559;28;19932;-68
2023/06/22 03:19:57;;;;;;;;;;;15.90;99.90;;;;;;5035083;28;20288;-65
2023/06/22 03:22:22;;;;;;;;;;;16.00;99.90;;;;;;5038069;28;19979;-65
2023/06/22 03:24:48;;;;;;;;;;;16.00;99.90;;;;;;5039870;28;19912;-65
2023/06/22 03:27:14;;;;;;;;;;;15.90;99.90;;;;;;5037384;28;19905;-66
2023/06/22 03:29:39;;;;;;;;;;;15.80;99.90;;;;;;5040184;28;20280;-66
2023/06/22 03:32:05;;;;;;;;;;;15.80;99.90;;;;;;5037111;28;20193;-66
2023/06/22 03:34:33;;;;;;;;;;;15.80;99.90;;;;;;5039021;28;19967;-66
2023/06/22 03:36:59;;;;;;;;;;;15.80;99.90;;;;;;5038345;28;19917;-66
2023/06/22 03:39:24;;;;;;;;;;;15.90;99.90;;;;;;5037424;28;19928;-66
2023/06/22 03:41:50;;;;;;;;;;;15.90;99.90;;;;;;5043372;28;19913;-66
2023/06/22 03:44:16;;;;;;;;;;;15.90;99.90;;;;;;5039159;28;19959;-84
2023/06/22 03:46:41;;;;;;;;;;;16.00;99.90;;;;;;5040634;28;19909;-66
2023/06/22 03:49:07;;;;;;;;;;;16.00;99.90;;;;;;5037727;28;19963;-66
2023/06/22 03:51:33;;;;;;;;;;;16.00;99.90;;;;;;5040642;28;19954;-65
2023/06/22 03:53:58;;;;;;;;;;;16.00;99.90;;;;;;5039278;28;19992;-67
2023/06/22 03:56:24;;;;;;;;;;;15.80;99.90;;;;;;5033981;28;20208;-66
2023/06/22 03:58:50;;;;;;;;;;;15.70;99.90;;;;;;5040944;28;19980;-66
2023/06/22 04:01:17;;;;;;;;;;;15.70;99.90;;;;;;5039914;28;19909;-84
2023/06/22 04:03:42;;;;;;;;;;;15.60;99.90;;;;;;5039959;28;19908;-65
2023/06/22 04:06:08;;;;;;;;;;;15.60;99.90;;;;;;5005476;28;20212;-65
2023/06/22 04:08:34;;;;;;;;;;;15.50;99.90;;;;;;5034618;28;20316;-65
2023/06/22 04:10:59;;;;;;;;;;;15.40;99.90;;;;;;5042602;28;19909;-66
2023/06/22 04:13:25;;;;;;;;;;;15.50;99.90;;;;;;5043030;28;19912;-65
2023/06/22 04:15:51;;;;;;;;;;;15.50;99.90;;;;;;5037091;28;19913;-65
2023/06/22 04:18:16;;;;;;;;;;;15.40;99.90;;;;;;5033240;28;19909;-65
2023/06/22 04:20:42;;;;;;;;;;;15.40;99.90;;;;;;5034011;28;19963;-66
2023/06/22 04:23:07;;;;;;;;;;;15.50;99.90;;;;;;5034708;28;19909;-65
2023/06/22 04:25:33;;;;;;;;;;;15.60;99.90;;;;;;5034736;28;19951;-66
2023/06/22 04:27:59;;;;;;;;;;;15.70;99.90;;;;;;5034955;28;19905;-86
2023/06/22 04:30:24;;;;;;;;;;;15.70;99.90;;;;;;5034302;28;19909;-65
2023/06/22 04:32:57;;;;;;;;;;;15.60;99.90;;;;;;5034682;28;19913;-66
2023/06/22 04:35:23;;;;;;;;;;;15.60;99.90;;;;;;5034244;28;19905;-65
2023/06/22 04:37:49;;;;;;;;;;;15.60;99.90;;;;;;5031967;28;19928;-65
2023/06/22 04:40:15;;;;;;;;;;;15.80;99.90;;;;;;5016548;28;19913;-66
2023/06/22 04:42:42;;;;;;;;;;;15.80;99.90;;;;;;5033773;28;19913;-65
2023/06/22 04:45:09;;;;;;;;;;;15.80;99.90;;;;;;5035253;28;19970;-78
2023/06/22 04:47:39;;;;;;;;;;;15.90;99.90;;;;;;5034883;28;19928;-66
2023/06/22 04:50:05;;;;;;;;;;;16.00;99.90;;;;;;5033840;28;20299;-65
2023/06/22 04:52:31;;;;;;;;;;;16.30;99.90;;;;;;5034155;28;19920;-67
2023/06/22 04:54:59;;;;;;;;;;;16.60;99.90;;;;;;5034196;28;19905;-65
2023/06/22 04:57:31;;;;;;;;;;;16.70;99.90;;;;;;5034217;28;20323;-65
2023/06/22 05:00:06;;;;;;;;;;;17.10;99.90;;;;;;5035497;28;19925;-87
2023/06/22 05:02:32;;;;;;;;;;;17.40;99.90;;;;;;5037153;28;19909;-65
2023/06/22 05:04:58;;;;;;;;;;;17.70;99.90;;;;;;5038271;28;19909;-65
2023/06/22 05:07:25;;;;;;;;;;;17.80;99.90;;;;;;5037958;28;20186;-89
2023/06/22 05:09:51;;;;;;;;;;;18.00;99.90;;;;;;5038402;28;20295;-66
2023/06/22 05:12:16;;;;;;;;;;;18.10;99.90;;;;;;5037391;28;19915;-66
2023/06/22 05:14:42;;;;;;;;;;;18.30;99.90;;;;;;5037988;28;19913;-66
2023/06/22 05:17:13;;;;;;;;;;;18.40;99.90;;;;;;5037855;28;19920;-84
2023/06/22 05:19:39;;;;;;;;;;;18.50;99.90;;;;;;5037002;28;20357;-65
2023/06/22 05:22:06;;;;;;;;;;;18.50;99.90;;;;;;5036224;28;19909;-65
2023/06/22 05:24:31;;;;;;;;;;;18.60;99.90;;;;;;5043853;28;20016;-89
2023/06/22 05:26:57;;;;;;;;;;;18.60;99.90;;;;;;5037839;28;20016;-66
2023/06/22 05:29:23;;;;;;;;;;;18.70;99.90;;;;;;5019752;28;20031;-65
2023/06/22 05:31:49;;;;;;;;;;;18.70;99.90;;;;;;5037440;28;19915;-65
2023/06/22 05:34:14;;;;;;;;;;;18.70;99.90;;;;;;5037245;28;19909;-66
2023/06/22 05:36:40;;;;;;;;;;;18.80;99.90;;;;;;5037900;28;19967;-66
2023/06/22 05:39:13;;;;;;;;;;;18.80;99.90;;;;;;5037428;28;19994;-67
2023/06/22 05:41:39;;;;;;;;;;;18.90;99.90;;;;;;5032753;28;20050;-67
2023/06/22 05:44:04;;;;;;;;;;;19.00;99.90;;;;;;5034172;28;19992;-67
2023/06/22 05:46:30;;;;;;;;;;;19.00;99.90;;;;;;5037013;28;20292;-66
2023/06/22 05:48:56;;;;;;;;;;;19.10;99.90;;;;;;5038485;28;20390;-66
2023/06/22 05:51:22;;;;;;;;;;;19.20;99.90;;;;;;5036727;28;19905;-67
2023/06/22 05:53:49;;;;;;;;;;;19.30;99.90;;;;;;5036920;28;19916;-66
2023/06/22 05:56:15;;;;;;;;;;;19.40;99.90;;;;;;5037289;28;19909;-66
2023/06/22 05:58:41;;;;;;;;;;;19.50;99.90;;;;;;5037076;28;19917;-93
2023/06/22 06:01:07;;;;;;;;;;;19.60;99.90;;;;;;5037294;28;20185;-66
2023/06/22 06:03:32;;;;;;;;;;;19.70;99.90;;;;;;5036953;28;20315;-65
2023/06/22 06:05:58;;;;;;;;;;;19.80;99.90;;;;;;5036974;28;19909;-66
2023/06/22 06:08:24;;;;;;;;;;;19.80;99.90;;;;;;5037095;28;19904;-66
2023/06/22 06:10:49;;;;;;;;;;;19.80;99.90;;;;;;5036583;28;19952;-66
2023/06/22 06:13:15;;;;;;;;;;;19.80;99.90;;;;;;5036796;28;20271;-66
2023/06/22 06:15:41;;;;;;;;;;;19.80;99.90;;;;;;5037004;28;19944;-66
2023/06/22 06:18:06;;;;;;;;;;;19.80;99.90;;;;;;5036802;28;19963;-66
2023/06/22 06:20:32;;;;;;;;;;;19.90;99.90;;;;;;5037288;28;19905;-66
2023/06/22 06:22:58;;;;;;;;;;;19.90;99.90;;;;;;5036767;28;19913;-66
2023/06/22 06:25:24;;;;;;;;;;;19.90;99.90;;;;;;5036965;28;20012;-87
2023/06/22 06:27:51;;;;;;;;;;;19.80;99.90;;;;;;5032025;28;20214;-66
2023/06/22 06:30:18;;;;;;;;;;;19.80;99.90;;;;;;5036720;28;20349;-66
2023/06/22 06:32:45;;;;;;;;;;;19.80;99.90;;;;;;5037099;28;19944;-66
2023/06/22 06:35:16;;;;;;;;;;;19.80;99.90;;;;;;5035962;28;19980;-66
2023/06/22 06:37:45;;;;;;;;;;;19.80;99.90;;;;;;5029764;28;20036;-65
2023/06/22 06:40:11;;;;;;;;;;;19.80;99.90;;;;;;5030891;28;19964;-65
2023/06/22 06:42:40;;;;;;;;;;;19.80;99.90;;;;;;5034732;28;20235;-66
2023/06/22 06:45:06;;;;;;;;;;;19.80;99.90;;;;;;5033623;28;19909;-66
2023/06/22 06:47:32;;;;;;;;;;;19.90;99.90;;;;;;5036352;28;19917;-65
2023/06/22 06:49:57;;;;;;;;;;;19.90;99.90;;;;;;5036076;28;20270;-81
2023/06/22 06:52:23;;;;;;;;;;;20.00;99.90;;;;;;5035807;28;20357;-95
2023/06/22 06:54:51;;;;;;;;;;;20.00;99.90;;;;;;5034877;28;19918;-65
2023/06/22 06:57:17;;;;;;;;;;;20.00;99.90;;;;;;5036339;28;20007;-66
2023/06/22 06:59:43;;;;;;;;;;;20.10;99.90;;;;;;5035747;28;19924;-66
2023/06/22 07:02:08;;;;;;;;;;;20.20;99.90;;;;;;5036216;28;20211;-66
2023/06/22 07:04:34;;;;;;;;;;;20.30;99.90;;;;;;5035881;28;19905;-66
2023/06/22 07:07:01;;;;;;;;;;;20.30;99.90;;;;;;5036110;28;19916;-78
2023/06/22 07:09:27;;;;;;;;;;;20.40;99.90;;;;;;5035928;28;19912;-65
2023/06/22 07:11:53;;;;;;;;;;;20.40;99.90;;;;;;5037889;28;20215;-66
2023/06/22 07:14:18;;;;;;;;;;;20.40;99.90;;;;;;5036288;28;19966;-66
2023/06/22 07:16:44;;;;;;;;;;;20.50;99.90;;;;;;5038375;28;19905;-85
2023/06/22 07:19:13;;;;;;;;;;;20.60;99.90;;;;;;5035915;28;19909;-65
2023/06/22 07:21:39;;;;;;;;;;;20.60;99.90;;;;;;5035519;28;19916;-66
2023/06/22 07:24:05;;;;;;;;;;;20.70;99.90;;;;;;5034967;28;19905;-85
2023/06/22 07:26:31;;;;;;;;;;;20.70;99.90;;;;;;5035759;28;20204;-66
2023/06/22 07:28:57;;;;;;;;;;;20.70;99.90;;;;;;5035340;28;20318;-88
2023/06/22 07:31:26;;;;;;;;;;;20.80;99.90;;;;;;5017937;28;19905;-66
2023/06/22 07:33:51;;;;;;;;;;;20.80;99.90;;;;;;5035270;28;19959;-66
2023/06/22 07:36:17;;;;;;;;;;;20.80;99.90;;;;;;5035308;28;19905;-65
2023/06/22 07:38:43;;;;;;;;;;;20.90;99.90;;;;;;5035617;28;19909;-65
2023/06/22 07:41:09;;;;;;;;;;;21.00;99.90;;;;;;5035523;28;20019;-74
2023/06/22 07:43:37;;;;;;;;;;;21.00;99.90;;;;;;5035721;28;19912;-66
2023/06/22 07:46:03;;;;;;;;;;;21.10;99.90;;;;;;5035604;28;19909;-66
2023/06/22 07:48:28;;;;;;;;;;;21.20;99.90;;;;;;5035821;28;19921;-72
2023/06/22 07:50:54;;;;;;;;;;;21.30;99.90;;;;;;5035974;28;19905;-66
2023/06/22 07:53:20;;;;;;;;;;;21.40;99.90;;;;;;5035232;28;20016;-66
2023/06/22 07:55:45;;;;;;;;;;;21.40;99.90;;;;;;5035884;28;19909;-84
2023/06/22 07:58:13;;;;;;;;;;;21.40;99.90;;;;;;5017883;28;19915;-84
2023/06/22 08:00:39;;;;;;;;;;;21.50;99.90;;;;;;5035759;28;19913;-66
2023/06/22 08:03:05;;;;;;;;;;;21.60;99.90;;;;;;5035350;28;19912;-65
2023/06/22 08:05:31;;;;;;;;;;;21.70;99.90;;;;;;5035502;28;19909;-66
2023/06/22 08:07:57;;;;;;;;;;;21.70;99.90;;;;;;5035961;28;19912;-84
2023/06/22 08:10:23;;;;;;;;;;;21.80;99.90;;;;;;5035261;28;20196;-65
2023/06/22 08:12:48;;;;;;;;;;;21.90;99.90;;;;;;5034084;28;19909;-66
2023/06/22 08:15:14;;;;;;;;;;;21.90;99.90;;;;;;5031895;28;20011;-91
2023/06/22 08:17:40;;;;;;;;;;;22.00;99.90;;;;;;5034979;28;19909;-67
2023/06/22 08:20:12;;;;;;;;;;;22.10;99.90;;;;;;5035438;28;19950;-85
2023/06/22 08:22:38;;;;;;;;;;;22.10;99.90;;;;;;5035312;28;20243;-65
2023/06/22 08:25:04;;;;;;;;;;;22.10;99.90;;;;;;5035683;28;19905;-65
2023/06/22 08:27:31;;;;;;;;;;;22.20;99.90;;;;;;5035320;28;19927;-66
2023/06/22 08:29:58;;;;;;;;;;;22.30;99.90;;;;;;5035226;28;19909;-65
2023/06/22 08:32:26;;;;;;;;;;;22.40;99.90;;;;;;5033498;28;20353;-83
2023/06/22 08:34:52;;;;;;;;;;;22.40;99.90;;;;;;5037154;28;19915;-66
2023/06/22 08:37:18;;;;;;;;;;;22.40;99.90;;;;;;5037432;28;19914;-83
2023/06/22 08:39:44;;;;;;;;;;;22.40;99.90;;;;;;5039335;28;19947;-85
2023/06/22 08:42:09;;;;;;;;;;;22.50;99.90;;;;;;5039121;28;19996;-66
2023/06/22 08:44:35;;;;;;;;;;;22.50;99.90;;;;;;5039152;28;20181;-67
2023/06/22 08:47:00;;;;;;;;;;;22.60;99.90;;;;;;5040995;28;20223;-66
2023/06/22 08:49:26;;;;;;;;;;;22.70;99.90;;;;;;5038443;28;19956;-90
2023/06/22 08:51:53;;;;;;;;;;;22.80;99.90;;;;;;5040126;28;19905;-66
2023/06/22 08:54:19;;;;;;;;;;;22.90;99.90;;;;;;5042158;28;20000;-69
2023/06/22 08:56:44;;;;;;;;;;;23.00;99.90;;;;;;5041400;28;20097;-66
2023/06/22 08:59:10;;;;;;;;;;;23.10;99.90;;;;;;5040902;28;19921;-84
2023/06/22 09:01:36;;;;;;;;;;;23.20;99.90;;;;;;5037663;28;20280;-65
2023/06/22 09:04:02;;;;;;;;;;;23.30;99.90;;;;;;5039037;28;19915;-85
2023/06/22 09:06:27;;;;;;;;;;;23.40;99.90;;;;;;5043449;28;19912;-88
2023/06/22 09:08:53;;;;;;;;;;;23.50;99.90;;;;;;5040813;28;19916;-67
2023/06/22 09:11:18;;;;;;;;;;;23.50;99.90;;;;;;5039142;28;19939;-66
2023/06/22 09:13:44;;;;;;;;;;;23.50;99.90;;;;;;5038624;28;19948;-66
2023/06/22 09:16:10;;;;;;;;;;;23.60;99.90;;;;;;5037298;28;19909;-85
2023/06/22 09:18:36;;;;;;;;;;;23.70;99.90;;;;;;5037844;28;20491;-66
2023/06/22 09:21:01;;;;;;;;;;;23.80;99.90;;;;;;5045197;28;19920;-66
2023/06/22 09:23:27;;;;;;;;;;;23.80;99.90;;;;;;5038398;28;19905;-66
2023/06/22 09:25:53;;;;;;;;;;;23.80;99.90;;;;;;5037785;28;19909;-85
2023/06/22 09:28:18;;;;;;;;;;;23.80;99.90;;;;;;5038850;28;20416;-73
2023/06/22 09:30:47;;;;;;;;;;;23.80;99.90;;;;;;5037769;28;19905;-86
2023/06/22 09:33:12;;;;;;;;;;;24.00;99.90;;;;;;5039177;28;19999;-91
2023/06/22 09:35:38;;;;;;;;;;;24.00;99.90;;;;;;5037907;28;19995;-90
2023/06/22 09:38:03;;;;;;;;;;;24.00;99.90;;;;;;5038558;28;20211;-92
2023/06/22 09:40:29;;;;;;;;;;;24.00;99.90;;;;;;5037793;28;19909;-81
2023/06/22 09:42:55;;;;;;;;;;;24.00;99.90;;;;;;5038090;28;19909;-92
2023/06/22 09:45:20;;;;;;;;;;;23.90;99.90;;;;;;5038499;28;19917;-87
2023/06/22 09:47:46;;;;;;;;;;;23.90;99.90;;;;;;5037228;28;19909;-66
2023/06/22 09:50:11;;;;;;;;;;;23.90;99.90;;;;;;5037105;28;19913;-95
2023/06/22 09:52:37;;;;;;;;;;;23.90;99.90;;;;;;5037460;28;19913;-67
2023/06/22 09:55:03;;;;;;;;;;;23.90;99.90;;;;;;5037705;28;19908;-89
2023/06/22 09:57:29;;;;;;;;;;;24.00;99.90;;;;;;5036283;28;20381;-66
2023/06/22 09:59:55;;;;;;;;;;;23.90;99.90;;;;;;5036771;28;20011;-65
2023/06/22 10:02:22;;;;;;;;;;;23.70;99.90;;;;;;5036862;28;19917;-65
2023/06/22 10:04:47;;;;;;;;;;;23.40;99.90;;;;;;5037063;28;19916;-92
2023/06/22 10:07:13;;;;;;;;;;;23.10;99.90;;;;;;5037283;28;19905;-66
2023/06/22 10:09:38;;;;;;;;;;;23.10;99.90;;;;;;5037031;28;19932;-71
2023/06/22 10:12:04;;;;;;;;;;;23.10;99.90;;;;;;5028043;28;19956;-78
2023/06/22 10:14:30;;;;;;;;;;;23.00;99.90;;;;;;5015467;28;19948;-83
2023/06/22 10:16:56;;;;;;;;;;;23.00;99.90;;;;;;5033735;28;20272;-81
2023/06/22 10:19:21;;;;;;;;;;;23.00;99.90;;;;;;5037025;28;19928;-66
2023/06/22 10:21:47;;;;;;;;;;;23.00;99.90;;;;;;5027703;28;19909;-65
2023/06/22 10:24:12;;;;;;;;;;;22.90;99.90;;;;;;5036999;28;19923;-66
2023/06/22 10:26:38;;;;;;;;;;;22.90;99.90;;;;;;5037207;28;20346;-81
2023/06/22 10:29:04;;;;;;;;;;;22.90;99.90;;;;;;5038930;28;19987;-90
2023/06/22 10:31:30;;;;;;;;;;;22.70;99.90;;;;;;5037195;28;19913;-66
2023/06/22 10:33:55;;;;;;;;;;;22.80;99.90;;;;;;5036720;28;19913;-87
2023/06/22 10:36:21;;;;;;;;;;;22.80;99.90;;;;;;5037118;28;19909;-82
2023/06/22 10:38:47;;;;;;;;;;;22.80;99.90;;;;;;5036372;28;19955;-93
2023/06/22 10:41:13;;;;;;;;;;;22.70;99.90;;;;;;5036454;28;19988;-66
2023/06/22 10:43:39;;;;;;;;;;;22.70;99.90;;;;;;5036201;28;20335;-65
2023/06/22 10:46:04;;;;;;;;;;;22.80;99.90;;;;;;5036282;28;19992;-65
2023/06/22 10:48:30;;;;;;;;;;;22.80;99.90;;;;;;5037547;28;19909;-65
2023/06/22 10:50:56;;;;;;;;;;;22.80;99.90;;;;;;5036414;28;20308;-92
2023/06/22 10:53:21;;;;;;;;;;;22.70;99.90;;;;;;5036458;28;19924;-66
2023/06/22 10:55:47;;;;;;;;;;;22.70;99.90;;;;;;5043373;28;20266;-66
2023/06/22 10:58:13;;;;;;;;;;;22.70;99.90;;;;;;5040732;28;19909;-66
2023/06/22 11:00:38;;;;;;;;;;;22.80;99.90;;;;;;5038890;28;20236;-72
2023/06/22 11:03:04;;;;;;;;;;;22.80;99.90;;;;;;5036172;28;19928;-67
2023/06/22 11:05:30;;;;;;;;;;;22.70;99.90;;;;;;5036421;28;19996;-65
2023/06/22 11:07:55;;;;;;;;;;;22.60;99.90;;;;;;5017210;28;20314;-65
2023/06/22 11:10:21;;;;;;;;;;;22.50;99.90;;;;;;5030408;28;19909;-65
2023/06/22 11:12:46;;;;;;;;;;;22.50;99.90;;;;;;5031330;28;19905;-65
2023/06/22 11:15:12;;;;;;;;;;;22.50;99.90;;;;;;5030320;28;19952;-95
2023/06/22 11:17:37;;;;;;;;;;;22.50;99.90;;;;;;5035753;28;20007;-91
2023/06/22 11:20:12;;;;;;;;;;;22.40;99.90;;;;;;5029465;28;19967;-85
2023/06/22 11:22:39;;;;;;;;;;;22.40;99.90;;;;;;5035090;28;19909;-66
2023/06/22 11:25:05;;;;;;;;;;;22.40;99.90;;;;;;5035903;28;19916;-65
2023/06/22 11:27:31;;;;;;;;;;;22.40;99.90;;;;;;5035526;28;19909;-65
2023/06/22 11:29:56;;;;;;;;;;;22.40;99.90;;;;;;5034925;28;19913;-66
2023/06/22 11:32:22;;;;;;;;;;;22.50;99.90;;;;;;5026252;28;19905;-65
2023/06/22 11:34:48;;;;;;;;;;;22.50;99.90;;;;;;5035315;28;20002;-66
2023/06/22 11:37:13;;;;;;;;;;;22.60;99.90;;;;;;5019275;28;19917;-67
2023/06/22 11:39:39;;;;;;;;;;;22.70;99.90;;;;;;5034000;28;19909;-66
2023/06/22 11:42:05;;;;;;;;;;;22.70;99.90;;;;;;5038787;28;19955;-66
2023/06/22 11:44:30;;;;;;;;;;;22.70;99.90;;;;;;5038065;28;19916;-66
2023/06/22 11:46:56;;;;;;;;;;;22.70;99.90;;;;;;5039888;28;19909;-66
2023/06/22 11:49:22;;;;;;;;;;;22.80;99.90;;;;;;5034921;28;19905;-66
2023/06/22 11:51:47;;;;;;;;;;;22.80;99.90;;;;;;5040168;28;19905;-66
2023/06/22 11:54:13;;;;;;;;;;;22.80;99.90;;;;;;5037568;28;20237;-66
2023/06/22 11:56:38;;;;;;;;;;;22.70;99.90;;;;;;5043895;28;19955;-75
2023/06/22 11:59:05;;;;;;;;;;;22.70;99.90;;;;;;5034530;28;19921;-66
2023/06/22 12:01:33;;;;;;;;;;;22.80;99.90;;;;;;5035320;28;20223;-88
2023/06/22 12:03:59;;;;;;;;;;;22.90;99.90;;;;;;5017801;28;19969;-72
2023/06/22 12:06:24;;;;;;;;;;;22.90;99.90;;;;;;5035325;28;20105;-66
2023/06/22 12:08:50;;;;;;;;;;;22.90;99.90;;;;;;5033338;28;19924;-66
2023/06/22 12:11:15;;;;;;;;;;;22.80;99.90;;;;;;5035454;28;20303;-66
2023/06/22 12:13:41;;;;;;;;;;;22.80;99.90;;;;;;5035019;28;19905;-66
2023/06/22 12:16:06;;;;;;;;;;;22.80;99.90;;;;;;5035182;28;19905;-66
2023/06/22 12:18:32;;;;;;;;;;;22.90;99.90;;;;;;5033724;28;19910;-66
2023/06/22 12:20:58;;;;;;;;;;;22.90;99.90;;;;;;5030717;28;19914;-87
2023/06/22 12:23:24;;;;;;;;;;;22.90;99.90;;;;;;5035214;28;20052;-66
2023/06/22 12:25:49;;;;;;;;;;;22.90;99.90;;;;;;5034579;28;19971;-66
2023/06/22 12:28:15;;;;;;;;;;;22.90;99.90;;;;;;5035082;28;19909;-66
2023/06/22 12:30:41;;;;;;;;;;;22.90;99.90;;;;;;5035710;28;19963;-66
2023/06/22 12:33:06;;;;;;;;;;;22.90;99.90;;;;;;5038206;28;20402;-66
2023/06/22 12:35:32;;;;;;;;;;;22.90;99.90;;;;;;5037561;28;20211;-66
2023/06/22 12:37:58;;;;;;;;;;;22.80;99.90;;;;;;5040418;28;19920;-66
2023/06/22 12:40:24;;;;;;;;;;;22.90;99.90;;;;;;5035909;28;19924;-65
2023/06/22 12:42:49;;;;;;;;;;;23.00;99.90;;;;;;5038938;28;20232;-66
2023/06/22 12:45:15;;;;;;;;;;;23.00;99.90;;;;;;5039421;28;19913;-66
2023/06/22 12:47:41;;;;;;;;;;;23.00;99.90;;;;;;5034827;28;19909;-66
2023/06/22 12:50:07;;;;;;;;;;;22.90;99.90;;;;;;5033572;28;20364;-88
2023/06/22 12:52:32;;;;;;;;;;;22.90;99.90;;;;;;5033389;28;19913;-66
2023/06/22 12:54:58;;;;;;;;;;;22.90;99.90;;;;;;5034704;28;19959;-66
2023/06/22 12:57:23;;;;;;;;;;;22.90;99.90;;;;;;5033981;28;19921;-67
2023/06/22 12:59:49;;;;;;;;;;;22.80;99.90;;;;;;5039539;28;19932;-67
2023/06/22 13:02:15;;;;;;;;;;;22.70;99.90;;;;;;5036110;28;19917;-90
2023/06/22 13:04:41;;;;;;;;;;;22.70;99.90;;;;;;5033742;28;20231;-66
2023/06/22 13:07:07;;;;;;;;;;;22.80;99.90;;;;;;5014051;28;19976;-93
2023/06/22 13:09:34;;;;;;;;;;;22.80;99.90;;;;;;5040242;28;19917;-79
2023/06/22 13:12:00;;;;;;;;;;;22.70;99.90;;;;;;5033652;28;19909;-67
2023/06/22 13:14:26;;;;;;;;;;;22.70;99.90;;;;;;5034463;28;19909;-86
2023/06/22 13:16:51;;;;;;;;;;;22.60;99.90;;;;;;5034404;28;19977;-66
2023/06/22 13:19:17;;;;;;;;;;;22.60;99.90;;;;;;5034380;28;19913;-66
2023/06/22 13:21:42;;;;;;;;;;;22.60;99.90;;;;;;5035144;28;20367;-66
2023/06/22 13:24:08;;;;;;;;;;;22.60;99.90;;;;;;5037735;28;19918;-66
2023/06/22 13:26:33;;;;;;;;;;;22.60;99.90;;;;;;5037692;28;19909;-66
2023/06/22 13:28:59;;;;;;;;;;;22.50;99.90;;;;;;5036904;28;19909;-66
2023/06/22 13:31:24;;;;;;;;;;;22.50;99.90;;;;;;5038271;28;19905;-80
2023/06/22 13:33:52;;;;;;;;;;;22.50;99.90;;;;;;5036377;28;20292;-66
2023/06/22 13:36:17;;;;;;;;;;;22.50;99.90;;;;;;5036973;28;19952;-66
2023/06/22 13:38:43;;;;;;;;;;;22.50;99.90;;;;;;5037484;28;19948;-66
2023/06/22 13:41:09;;;;;;;;;;;22.40;99.90;;;;;;5037264;28;20247;-70
2023/06/22 13:43:34;;;;;;;;;;;22.40;99.90;;;;;;5037167;28;19916;-89
2023/06/22 13:46:00;;;;;;;;;;;22.40;99.90;;;;;;5037324;28;19916;-66
2023/06/22 13:48:25;;;;;;;;;;;22.40;99.90;;;;;;5037640;28;19905;-66
2023/06/22 13:50:51;;;;;;;;;;;22.30;99.90;;;;;;5030010;28;19910;-66
2023/06/22 13:53:17;;;;;;;;;;;22.40;99.90;;;;;;5036872;28;19913;-68
2023/06/22 13:55:43;;;;;;;;;;;22.30;99.90;;;;;;5037819;28;20252;-85
2023/06/22 13:58:08;;;;;;;;;;;22.30;99.90;;;;;;5037895;28;19941;-67
2023/06/22 14:00:34;;;;;;;;;;;22.40;99.90;;;;;;5042272;28;19996;-65
2023/06/22 14:02:59;;;;;;;;;;;22.40;99.90;;;;;;5036812;28;20295;-67
2023/06/22 14:05:25;;;;;;;;;;;22.40;99.90;;;;;;5037592;28;20054;-66
2023/06/22 14:07:51;;;;;;;;;;;22.30;99.90;;;;;;5020052;28;19905;-66
2023/06/22 14:10:17;;;;;;;;;;;22.30;99.90;;;;;;5035650;28;19913;-85